Fort Ripley, Minnesota
Current Conditions -  °F | °C
As of 5:17 PM on Saturday 25 Oct 2014 (Local Time) from KLXL Reporting Station
Clear Clear  
Wind Chill: 57°   Ceiling: Unl
Heat Index: 57°   Visibility: 10mi
Dew Point: 25°   Wind: 10mph
Humidity: 29%   Direction: 290°WNW
Pressure: 30.06"   Gusts: 17mph
Location:  46.17°N, 94.36°W
Report Text: KLXL 252217Z AUTO 29009G15KT 10SM CLR 14/M04 A3006 RMK AO2
Loading
Personal Weather Stations






























Interactive Weather Map
Tropical Storm Tracking
New forecast layout! Learn more

10-Day Weather Forecast

Advertisements
Track Severe Weather on mobile